Freedom of the Seas — C6UZ7 — position and weather

sailwx.info

Track history (hours):
 
Tides and Currents Weather Stations Pressure Air Temp Water Temp Dewpoint Dewpoint Depression Visibility Wind Speed Wind Dir Waves Ship Positions

Freedom of the Seas

Last reported at 2017-Mar-30 07:00 UTC. Time now 2017-Mar-30 22:52 UTC.
Position N 19°06' W 087°06'.

Length 339 m; draft 9 m.

Type: Passenger vessel. MMSI: 309906000.

Wind from 110 at 26 knots

Barometer 1011.9 mb
Air temperature 26.3 ° C
Visibility: greater than 10.8 NM
Dewpoint 22.6 ° C
Water temperature 26.9 ° C

Date/timePositionNaut miles runAvg speedWind from/ knotsBaromVisibWave heightAir tempDewpointWater temp
2017-Mar-30 07:00N 19°06' W 087°06'8110.9 110 / 261011.910.8 26.322.626.9
2017-Mar-29 23:33N 20°27' W 087°02'4 3.6
2017-Mar-29 22:32N 20°29' W 086°59'0 0.0
2017-Mar-29 21:32N 20°29' W 086°59'0 0.0
2017-Mar-29 20:32N 20°29' W 086°59'0 0.0
2017-Mar-29 19:32N 20°29' W 086°59'0 0.0
2017-Mar-29 18:32N 20°29' W 086°59'0 0.0
2017-Mar-29 17:32N 20°29' W 086°59'0 0.0
2017-Mar-29 16:28N 20°29' W 086°59'0 0.0
2017-Mar-29 15:32N 20°29' W 086°59'0 0.0
2017-Mar-29 14:32N 20°29' W 086°59'0 0.0
2017-Mar-29 13:33N 20°29' W 086°59'7 6.8
2017-Mar-29 12:34N 20°35' W 086°56'  
2017-Mar-27 00:30N 25°32' W 079°50'1616.5
2017-Mar-26 23:34N 25°47' W 079°50'1717.0
2017-Mar-26 22:33N 26°01' W 080°02'6 6.1
2017-Mar-26 21:32N 26°05' W 080°07'0 0.0
2017-Mar-26 20:32N 26°05' W 080°07'0 0.0
2017-Mar-26 19:32N 26°05' W 080°07'0 0.0
2017-Mar-26 18:29N 26°05' W 080°07'0 0.0
2017-Mar-26 17:32N 26°05' W 080°07'0 0.0
2017-Mar-26 16:32N 26°05' W 080°07'0 0.0
2017-Mar-26 15:32N 26°05' W 080°07'0 0.0
2017-Mar-26 14:32N 26°05' W 080°07'0 0.0
2017-Mar-26 13:32N 26°05' W 080°07'0 0.0
2017-Mar-26 12:32N 26°05' W 080°07'0 0.0
2017-Mar-26 11:32N 26°05' W 080°07'0 0.0
2017-Mar-26 10:32N 26°05' W 080°07'0 0.0
2017-Mar-26 09:33N 26°05' W 080°07'4 3.7
2017-Mar-26 08:34N 26°06' W 080°03'1212.2
2017-Mar-26 07:33N 25°54' W 079°58'1717.4
2017-Mar-26 06:33N 25°38' W 079°53'42318.7
2017-Mar-25 08:00N 21°00' W 074°06'48319.3 090 / 231016.310.8 23.019.925.4
2017-Mar-24 07:00N 18°42' W 065°54'6317.9 260 / 51014.610.8 24.022.526.4
2017-Mar-24 03:27N 18°11' W 064°56'65 1.3
2017-Mar-22 02:32N 18°31' W 066°01'6 6.3
2017-Mar-22 01:33N 18°28' W 066°07'0 0.0
2017-Mar-22 00:33N 18°28' W 066°07'0 0.0
2017-Mar-21 23:33N 18°28' W 066°07'0 0.0
2017-Mar-21 22:33N 18°28' W 066°07'0 0.0
2017-Mar-21 21:33N 18°28' W 066°07'0 0.0
2017-Mar-21 20:33N 18°28' W 066°07'0 0.0
2017-Mar-21 19:33N 18°28' W 066°07'0 0.0
2017-Mar-21 18:33N 18°28' W 066°07'0 0.0
2017-Mar-21 17:30N 18°28' W 066°07'1 0.7
2017-Mar-21 16:33N 18°28' W 066°07'16417.2
2017-Mar-21 07:00N 19°30' W 068°48'24610.3 060 / 171015.810.8 24.520.726.3
2017-Mar-20 07:00N 20°12' W 073°06'   020 / 201016.910.8 24.021.025.9
Track history (hours):
 
Tides and Currents Weather Stations Pressure Air Temp Water Temp Dewpoint Dewpoint Depression Visibility Wind Speed Wind Dir Waves Ship Positions

Freedom of the Seas

Last reported at 2017-Mar-30 07:00 UTC. Time now 2017-Mar-30 22:52 UTC.
Position N 19°06' W 087°06'.

Length 339 m; draft 9 m.

Type: Passenger vessel. MMSI: 309906000.

Wind from 110 at 26 knots

Barometer 1011.9 mb
Air temperature 26.3 ° C
Visibility: greater than 10.8 NM
Dewpoint 22.6 ° C
Water temperature 26.9 ° C

Date/timePositionNaut miles runAvg speedWind from/ knotsBaromVisibWave heightAir tempDewpointWater temp
2017-Mar-30 07:00N 19°06' W 087°06'8110.9 110 / 261011.910.8 26.322.626.9
2017-Mar-29 23:33N 20°27' W 087°02'4 3.6
2017-Mar-29 22:32N 20°29' W 086°59'0 0.0
2017-Mar-29 21:32N 20°29' W 086°59'0 0.0
2017-Mar-29 20:32N 20°29' W 086°59'0 0.0
2017-Mar-29 19:32N 20°29' W 086°59'0 0.0
2017-Mar-29 18:32N 20°29' W 086°59'0 0.0
2017-Mar-29 17:32N 20°29' W 086°59'0 0.0
2017-Mar-29 16:28N 20°29' W 086°59'0 0.0
2017-Mar-29 15:32N 20°29' W 086°59'0 0.0
2017-Mar-29 14:32N 20°29' W 086°59'0 0.0
2017-Mar-29 13:33N 20°29' W 086°59'7 6.8
2017-Mar-29 12:34N 20°35' W 086°56'  
2017-Mar-27 00:30N 25°32' W 079°50'1616.5
2017-Mar-26 23:34N 25°47' W 079°50'1717.0
2017-Mar-26 22:33N 26°01' W 080°02'6 6.1
2017-Mar-26 21:32N 26°05' W 080°07'0 0.0
2017-Mar-26 20:32N 26°05' W 080°07'0 0.0
2017-Mar-26 19:32N 26°05' W 080°07'0 0.0
2017-Mar-26 18:29N 26°05' W 080°07'0 0.0
2017-Mar-26 17:32N 26°05' W 080°07'0 0.0
2017-Mar-26 16:32N 26°05' W 080°07'0 0.0
2017-Mar-26 15:32N 26°05' W 080°07'0 0.0
2017-Mar-26 14:32N 26°05' W 080°07'0 0.0
2017-Mar-26 13:32N 26°05' W 080°07'0 0.0
2017-Mar-26 12:32N 26°05' W 080°07'0 0.0
2017-Mar-26 11:32N 26°05' W 080°07'0 0.0
2017-Mar-26 10:32N 26°05' W 080°07'0 0.0
2017-Mar-26 09:33N 26°05' W 080°07'4 3.7
2017-Mar-26 08:34N 26°06' W 080°03'1212.2
2017-Mar-26 07:33N 25°54' W 079°58'1717.4
2017-Mar-26 06:33N 25°38' W 079°53'42318.7
2017-Mar-25 08:00N 21°00' W 074°06'48319.3 090 / 231016.310.8 23.019.925.4
2017-Mar-24 07:00N 18°42' W 065°54'6317.9 260 / 51014.610.8 24.022.526.4
2017-Mar-24 03:27N 18°11' W 064°56'65 1.3
2017-Mar-22 02:32N 18°31' W 066°01'6 6.3
2017-Mar-22 01:33N 18°28' W 066°07'0 0.0
2017-Mar-22 00:33N 18°28' W 066°07'0 0.0
2017-Mar-21 23:33N 18°28' W 066°07'0 0.0
2017-Mar-21 22:33N 18°28' W 066°07'0 0.0
2017-Mar-21 21:33N 18°28' W 066°07'0 0.0
2017-Mar-21 20:33N 18°28' W 066°07'0 0.0
2017-Mar-21 19:33N 18°28' W 066°07'0 0.0
2017-Mar-21 18:33N 18°28' W 066°07'0 0.0
2017-Mar-21 17:30N 18°28' W 066°07'1 0.7
2017-Mar-21 16:33N 18°28' W 066°07'16417.2
2017-Mar-21 07:00N 19°30' W 068°48'24610.3 060 / 171015.810.8 24.520.726.3
2017-Mar-20 07:00N 20°12' W 073°06'   020 / 201016.910.8 24.021.025.9

Dump ship's entire track history